createdAt,value
2019-02-02T00:01:27.687Z,6.13
2019-02-02T00:03:57.209Z,6.17
2019-02-02T00:06:26.722Z,6.13
2019-02-02T00:08:56.258Z,6.17
2019-02-02T00:11:25.785Z,6.17
2019-02-02T00:13:55.838Z,6.19
2019-02-02T00:16:25.314Z,6.15
2019-02-02T00:18:54.791Z,6.13
2019-02-02T00:21:24.298Z,6.12
2019-02-02T00:23:53.819Z,6.14
2019-02-02T00:26:23.321Z,6.12
2019-02-02T00:28:52.802Z,6.03
2019-02-02T00:31:22.311Z,5.97
2019-02-02T00:33:51.814Z,5.96
2019-02-02T00:36:21.300Z,6.02
2019-02-02T00:38:50.778Z,5.95
2019-02-02T00:41:20.283Z,5.54
2019-02-02T00:43:49.770Z,5.55
2019-02-02T00:46:19.235Z,5.62
2019-02-02T00:48:48.692Z,5.68
2019-02-02T00:51:18.175Z,5.78
2019-02-02T00:53:47.640Z,5.85
2019-02-02T00:56:17.129Z,5.82
2019-02-02T00:58:46.623Z,5.88
2019-02-02T01:01:16.246Z,5.89
2019-02-02T01:03:45.719Z,5.88
2019-02-02T01:06:15.283Z,5.91
2019-02-02T01:08:44.750Z,5.94
2019-02-02T01:11:14.246Z,5.89
2019-02-02T01:13:43.719Z,5.82
2019-02-02T01:16:13.244Z,5.88
2019-02-02T01:18:42.756Z,5.84
2019-02-02T01:21:12.237Z,5.75
2019-02-02T01:23:41.714Z,5.75
2019-02-02T01:26:11.638Z,5.74
2019-02-02T01:28:41.106Z,5.77
2019-02-02T01:31:10.595Z,5.84
2019-02-02T01:33:40.064Z,5.77
2019-02-02T01:36:09.570Z,5.74
2019-02-02T01:38:39.152Z,5.57
2019-02-02T01:41:08.616Z,5.62
2019-02-02T01:43:38.095Z,5.50
2019-02-02T01:46:07.658Z,5.56
2019-02-02T01:48:37.122Z,5.57
2019-02-02T01:51:06.558Z,5.63
2019-02-02T01:53:36.036Z,5.71
2019-02-02T01:56:05.628Z,5.73
2019-02-02T01:58:35.092Z,5.74
2019-02-02T02:01:05.150Z,5.79
2019-02-02T02:03:34.631Z,5.81
2019-02-02T02:06:04.122Z,5.89
2019-02-02T02:08:33.617Z,5.91
2019-02-02T02:11:03.097Z,5.85
2019-02-02T02:13:32.562Z,5.85
2019-02-02T02:16:02.047Z,5.86
2019-02-02T02:18:31.532Z,5.87
2019-02-02T02:21:01.100Z,5.95
2019-02-02T02:23:30.605Z,5.97
2019-02-02T02:26:00.094Z,5.98
2019-02-02T02:28:29.573Z,5.92
2019-02-02T02:30:59.050Z,5.91
2019-02-02T02:33:30.248Z,5.93
2019-02-02T02:35:59.770Z,5.96
2019-02-02T02:38:29.244Z,5.99
2019-02-02T02:40:58.747Z,5.92
2019-02-02T02:43:28.234Z,5.78
2019-02-02T02:45:57.694Z,5.57
2019-02-02T02:48:27.184Z,5.58
2019-02-02T02:50:56.847Z,5.51
2019-02-02T02:53:26.338Z,5.56
2019-02-02T02:55:55.827Z,5.65
2019-02-02T02:58:25.292Z,5.69
2019-02-02T03:00:54.787Z,5.76
2019-02-02T03:03:24.293Z,5.73
2019-02-02T03:05:53.807Z,5.72
2019-02-02T03:08:23.283Z,5.72
2019-02-02T03:10:52.778Z,5.73
2019-02-02T03:13:22.253Z,5.73
2019-02-02T03:15:51.760Z,5.82
2019-02-02T03:18:21.662Z,5.71
2019-02-02T03:20:51.169Z,5.65
2019-02-02T03:23:20.667Z,5.54
2019-02-02T03:25:50.173Z,5.52
2019-02-02T03:28:19.666Z,5.47
2019-02-02T03:30:49.144Z,5.38
2019-02-02T03:33:18.633Z,5.38
2019-02-02T03:35:48.172Z,5.34
2019-02-02T03:38:18.715Z,5.37
2019-02-02T03:40:48.229Z,5.45
2019-02-02T03:43:17.727Z,5.38
2019-02-02T03:45:47.202Z,5.33
2019-02-02T03:48:16.647Z,5.21
2019-02-02T03:50:46.119Z,5.20
2019-02-02T03:53:15.602Z,5.18
2019-02-02T03:55:45.357Z,5.07
2019-02-02T03:58:14.829Z,4.70
2019-02-02T04:00:44.341Z,4.68
2019-02-02T04:03:14.337Z,4.82
2019-02-02T04:05:43.841Z,4.83
2019-02-02T04:08:13.319Z,4.77
2019-02-02T04:10:42.803Z,4.75
2019-02-02T04:13:12.309Z,4.78
2019-02-02T04:15:41.882Z,4.64
2019-02-02T04:18:11.374Z,4.64
2019-02-02T04:20:41.469Z,4.74
2019-02-02T04:23:10.986Z,4.80
2019-02-02T04:25:40.457Z,4.80
2019-02-02T04:28:09.949Z,4.83
2019-02-02T04:30:39.467Z,4.77
2019-02-02T04:33:08.954Z,4.82
2019-02-02T04:35:38.404Z,4.82
2019-02-02T04:38:07.873Z,4.82
2019-02-02T04:40:37.362Z,4.80
2019-02-02T04:43:06.984Z,4.84
2019-02-02T04:45:36.451Z,4.87
2019-02-02T04:48:06.048Z,4.90
2019-02-02T04:50:35.528Z,4.97
2019-02-02T04:53:05.010Z,4.94
2019-02-02T04:55:34.458Z,4.85
2019-02-02T04:58:03.898Z,4.92
2019-02-02T05:00:33.394Z,4.97
2019-02-02T05:03:02.862Z,5.01
2019-02-02T05:05:32.339Z,5.03
2019-02-02T05:08:01.826Z,5.08
2019-02-02T05:10:31.300Z,5.02
2019-02-02T05:13:00.789Z,5.04
2019-02-02T05:15:30.253Z,5.03
2019-02-02T05:17:59.756Z,5.07
2019-02-02T05:20:29.245Z,5.00
2019-02-02T05:22:58.705Z,5.01
2019-02-02T05:25:28.197Z,5.01
2019-02-02T05:27:57.706Z,5.09
2019-02-02T05:30:29.334Z,5.07
2019-02-02T05:32:58.859Z,5.04
2019-02-02T05:35:28.448Z,5.08
2019-02-02T05:37:57.908Z,5.02
2019-02-02T05:40:27.371Z,5.00
2019-02-02T05:42:56.900Z,4.94
2019-02-02T05:45:26.377Z,4.99
2019-02-02T05:47:55.870Z,4.93
2019-02-02T05:50:25.375Z,4.82
2019-02-02T05:52:54.842Z,4.88
2019-02-02T05:55:24.482Z,4.70
2019-02-02T05:57:53.962Z,4.64
2019-02-02T06:00:38.703Z,4.74
2019-02-02T06:03:08.133Z,4.76
2019-02-02T06:05:37.635Z,4.82
2019-02-02T06:08:07.142Z,4.86
2019-02-02T06:10:36.669Z,4.90
2019-02-02T06:13:06.351Z,4.97
2019-02-02T06:15:37.483Z,5.04
2019-02-02T06:18:07.169Z,5.10
2019-02-02T06:20:36.635Z,5.16
2019-02-02T06:23:06.135Z,5.30
2019-02-02T06:25:35.648Z,5.45
2019-02-02T06:28:05.153Z,5.47
2019-02-02T06:30:34.639Z,5.50
2019-02-02T06:33:04.339Z,5.56
2019-02-02T06:35:33.803Z,5.67
2019-02-02T06:38:03.284Z,5.80
2019-02-02T06:40:32.744Z,5.79
2019-02-02T06:43:02.228Z,5.77
2019-02-02T06:45:33.792Z,5.81
2019-02-02T06:48:03.539Z,5.76
2019-02-02T06:50:33.067Z,5.82
2019-02-02T06:53:03.031Z,5.87
2019-02-02T06:55:32.541Z,5.94
2019-02-02T06:58:02.076Z,6.05
2019-02-02T07:00:31.600Z,6.18
2019-02-02T07:03:01.187Z,6.21
2019-02-02T07:05:33.754Z,6.27
2019-02-02T07:08:02.507Z,6.35
2019-02-02T07:10:31.998Z,6.38
2019-02-02T07:13:01.474Z,6.43
2019-02-02T07:15:31.342Z,6.48
2019-02-02T07:18:00.991Z,6.56
2019-02-02T07:20:30.509Z,6.66
2019-02-02T07:23:01.742Z,6.61
2019-02-02T07:25:31.208Z,6.70
2019-02-02T07:28:00.698Z,6.71
2019-02-02T07:30:30.155Z,6.73
2019-02-02T07:32:59.694Z,6.69
2019-02-02T07:35:29.207Z,6.80
2019-02-02T07:37:58.720Z,6.88
2019-02-02T07:40:28.246Z,7.01
2019-02-02T07:42:57.876Z,7.08
2019-02-02T07:45:29.579Z,7.09
2019-02-02T07:47:59.094Z,7.27
2019-02-02T07:50:28.576Z,7.32
2019-02-02T07:52:58.222Z,7.34
2019-02-02T07:55:27.673Z,7.56
2019-02-02T07:57:57.165Z,7.81
2019-02-02T08:00:39.642Z,7.95
2019-02-02T08:03:00.186Z,7.93
2019-02-02T08:05:29.687Z,8.09
2019-02-02T08:07:59.260Z,8.21
2019-02-02T08:10:28.729Z,8.20
2019-02-02T08:12:58.519Z,8.28
2019-02-02T08:15:29.790Z,8.15
2019-02-02T08:17:59.289Z,8.05
2019-02-02T08:20:28.799Z,8.10
2019-02-02T08:22:58.358Z,8.13
2019-02-02T08:25:27.974Z,7.99
2019-02-02T08:27:57.537Z,8.06
2019-02-02T08:30:29.186Z,8.10
2019-02-02T08:32:58.823Z,8.13
2019-02-02T08:35:28.436Z,8.03
2019-02-02T08:37:57.943Z,7.79
2019-02-02T08:40:27.456Z,7.74
2019-02-02T08:42:56.954Z,7.75
2019-02-02T08:45:26.454Z,7.98
2019-02-02T08:47:55.986Z,7.96
2019-02-02T08:50:28.107Z,8.19
2019-02-02T08:52:57.627Z,8.44
2019-02-02T08:55:27.498Z,8.55
2019-02-02T08:57:57.282Z,8.71
2019-02-02T09:00:26.978Z,8.80
2019-02-02T09:02:56.508Z,8.91
2019-02-02T09:05:26.053Z,8.98
2019-02-02T09:07:55.567Z,9.09
2019-02-02T09:10:26.829Z,9.17
2019-02-02T09:12:56.545Z,9.14
2019-02-02T09:15:26.127Z,9.15
2019-02-02T09:17:55.646Z,9.05
2019-02-02T09:20:25.146Z,9.04
2019-02-02T09:23:03.978Z,9.21
2019-02-02T09:25:26.046Z,9.19
2019-02-02T09:27:55.545Z,9.31
2019-02-02T09:30:33.442Z,9.32
2019-02-02T09:33:02.937Z,9.20
2019-02-02T09:35:32.450Z,9.31
2019-02-02T09:38:01.935Z,9.44
2019-02-02T09:40:32.877Z,9.52
2019-02-02T09:43:02.398Z,9.73
2019-02-02T09:45:31.919Z,9.82
2019-02-02T09:48:01.371Z,9.89
2019-02-02T09:50:30.922Z,9.71
2019-02-02T09:53:00.415Z,9.70
2019-02-02T09:55:29.907Z,9.77
2019-02-02T09:58:02.499Z,9.86
2019-02-02T10:00:32.910Z,10.02
2019-02-02T10:03:02.672Z,10.08
2019-02-02T10:05:32.821Z,10.22
2019-02-02T10:08:02.589Z,10.20
2019-02-02T10:10:33.857Z,10.23
2019-02-02T10:13:03.396Z,10.21
2019-02-02T10:15:33.143Z,10.02
2019-02-02T10:18:02.637Z,10.11
2019-02-02T10:20:32.293Z,10.07
2019-02-02T10:23:02.039Z,10.09
2019-02-02T10:25:32.180Z,10.14
2019-02-02T10:28:01.772Z,10.16
2019-02-02T10:30:36.423Z,10.14
2019-02-02T10:33:06.241Z,10.22
2019-02-02T10:35:35.791Z,10.40
2019-02-02T10:38:05.793Z,10.53
2019-02-02T10:40:35.376Z,10.68
2019-02-02T10:43:05.315Z,10.68
2019-02-02T10:45:35.154Z,10.71
2019-02-02T10:48:05.845Z,10.76
2019-02-02T10:50:35.554Z,10.59
2019-02-02T10:53:05.288Z,10.52
2019-02-02T10:55:36.243Z,10.62
2019-02-02T10:58:06.595Z,10.76
2019-02-02T11:00:38.741Z,10.80
2019-02-02T11:03:08.348Z,10.82
2019-02-02T11:05:37.965Z,10.85
2019-02-02T11:08:07.872Z,10.94
2019-02-02T11:10:37.607Z,11.10
2019-02-02T11:13:08.049Z,11.10
2019-02-02T11:15:37.718Z,11.08
2019-02-02T11:18:07.740Z,11.08
2019-02-02T11:20:37.326Z,11.16
2019-02-02T11:23:15.210Z,11.19
2019-02-02T11:25:44.962Z,11.34
2019-02-02T11:28:14.558Z,11.49
2019-02-02T11:30:44.021Z,11.54
2019-02-02T11:33:13.532Z,11.66
2019-02-02T11:35:43.004Z,11.67
2019-02-02T11:38:12.499Z,11.67
2019-02-02T11:40:42.011Z,11.70
2019-02-02T11:43:11.543Z,11.38
2019-02-02T11:45:41.060Z,11.58
2019-02-02T11:48:10.703Z,11.42
2019-02-02T11:50:40.208Z,11.51
2019-02-02T11:53:09.948Z,11.49
2019-02-02T11:55:39.441Z,11.48
2019-02-02T11:58:08.951Z,11.41
2019-02-02T12:00:40.752Z,11.11
2019-02-02T12:03:10.349Z,10.99
2019-02-02T12:05:40.006Z,11.11
2019-02-02T12:08:09.578Z,11.29
2019-02-02T12:10:39.117Z,11.56
2019-02-02T12:13:08.651Z,11.78
2019-02-02T12:15:38.214Z,11.70
2019-02-02T12:18:07.825Z,11.69
2019-02-02T12:20:37.364Z,11.45
2019-02-02T12:23:06.911Z,11.60
2019-02-02T12:25:36.444Z,11.53
2019-02-02T12:28:08.971Z,11.52
2019-02-02T12:30:37.581Z,11.31
2019-02-02T12:33:07.540Z,11.41
2019-02-02T12:35:37.052Z,11.30
2019-02-02T12:38:07.234Z,11.44
2019-02-02T12:40:36.724Z,11.43
2019-02-02T12:43:06.399Z,11.63
2019-02-02T12:45:50.845Z,11.80
2019-02-02T12:48:20.317Z,11.94
2019-02-02T12:50:50.793Z,11.91
2019-02-02T12:53:22.411Z,12.01
2019-02-02T12:55:52.217Z,12.06
2019-02-02T12:58:21.807Z,12.15
2019-02-02T13:00:51.315Z,12.17
2019-02-02T13:03:20.836Z,12.14
2019-02-02T13:05:50.393Z,12.27
2019-02-02T13:08:19.960Z,12.36
2019-02-02T13:10:49.623Z,12.35
2019-02-02T13:13:19.121Z,12.26
2019-02-02T13:15:48.634Z,12.21
2019-02-02T13:18:18.129Z,12.11
2019-02-02T13:20:47.625Z,11.86
2019-02-02T13:23:19.108Z,11.83
2019-02-02T13:25:48.592Z,11.94
2019-02-02T13:28:18.072Z,12.01
2019-02-02T13:30:47.575Z,11.91
2019-02-02T13:33:17.062Z,11.83
2019-02-02T13:35:47.555Z,11.86
2019-02-02T13:38:17.176Z,11.86
2019-02-02T13:40:46.697Z,11.96
2019-02-02T13:43:16.213Z,12.05
2019-02-02T13:45:45.709Z,12.12
2019-02-02T13:48:15.235Z,12.08
2019-02-02T13:50:44.810Z,12.15
2019-02-02T13:53:14.442Z,12.21
2019-02-02T13:55:43.932Z,12.15
2019-02-02T13:58:13.505Z,12.10
2019-02-02T14:00:42.994Z,12.10
2019-02-02T14:03:12.451Z,11.95
2019-02-02T14:05:42.240Z,12.01
2019-02-02T14:08:12.108Z,12.08
2019-02-02T14:10:41.632Z,11.95
2019-02-02T14:13:11.130Z,11.93
2019-02-02T14:15:42.737Z,11.93
2019-02-02T14:18:12.266Z,11.76
2019-02-02T14:20:41.791Z,11.81
2019-02-02T14:23:11.255Z,11.71
2019-02-02T14:25:40.716Z,11.79
2019-02-02T14:28:10.172Z,11.83
2019-02-02T14:30:39.661Z,11.75
2019-02-02T14:33:14.172Z,11.73
2019-02-02T14:35:40.446Z,11.71
2019-02-02T14:38:09.887Z,11.70
2019-02-02T14:40:39.499Z,11.73
2019-02-02T14:43:08.983Z,11.65
2019-02-02T14:45:38.488Z,11.67
2019-02-02T14:48:08.083Z,11.64
2019-02-02T14:50:37.600Z,11.59
2019-02-02T14:53:07.151Z,11.55
2019-02-02T14:55:36.718Z,11.52
2019-02-02T14:58:07.081Z,11.53
2019-02-02T15:00:36.659Z,11.52
2019-02-02T15:03:06.455Z,11.55
2019-02-02T15:05:43.137Z,11.51
2019-02-02T15:08:07.136Z,11.45
2019-02-02T15:10:36.614Z,11.45
2019-02-02T15:13:06.205Z,11.41
2019-02-02T15:15:38.782Z,11.40
2019-02-02T15:18:08.304Z,11.28
2019-02-02T15:20:38.953Z,11.12
2019-02-02T15:23:08.562Z,11.11
2019-02-02T15:25:38.036Z,11.10
2019-02-02T15:28:07.612Z,11.11
2019-02-02T15:30:37.460Z,11.11
2019-02-02T15:33:07.418Z,11.07
2019-02-02T15:35:36.955Z,11.00
2019-02-02T15:38:06.568Z,10.91
2019-02-02T15:40:36.072Z,10.88
2019-02-02T15:43:05.898Z,10.57
2019-02-02T15:45:35.427Z,10.52
2019-02-02T15:48:05.052Z,10.47
2019-02-02T15:50:34.565Z,10.42
2019-02-02T15:53:04.813Z,10.42
2019-02-02T15:55:34.300Z,10.38
2019-02-02T15:58:03.851Z,10.29
2019-02-02T16:00:38.312Z,10.08
2019-02-02T16:03:07.918Z,9.98
2019-02-02T16:05:38.079Z,9.92
2019-02-02T16:08:10.672Z,9.75
2019-02-02T16:10:40.273Z,9.72
2019-02-02T16:13:09.934Z,9.74
2019-02-02T16:15:39.457Z,9.63
2019-02-02T16:18:08.950Z,9.66
2019-02-02T16:20:42.212Z,9.61
2019-02-02T16:23:11.715Z,9.64
2019-02-02T16:25:41.366Z,9.62
2019-02-02T16:28:15.266Z,9.66
2019-02-02T16:30:44.975Z,9.50
2019-02-02T16:33:14.716Z,9.54
2019-02-02T16:35:44.228Z,9.55
2019-02-02T16:38:13.724Z,9.49
2019-02-02T16:40:43.266Z,9.46
2019-02-02T16:43:12.920Z,9.33
2019-02-02T16:45:42.459Z,9.29
2019-02-02T16:48:12.017Z,9.15
2019-02-02T16:50:41.537Z,9.03
2019-02-02T16:53:11.114Z,9.01
2019-02-02T16:55:40.646Z,9.06
2019-02-02T16:58:10.240Z,9.10
2019-02-02T17:00:39.932Z,9.15
2019-02-02T17:03:09.502Z,9.19
2019-02-02T17:05:39.176Z,9.20
2019-02-02T17:08:08.724Z,9.21
2019-02-02T17:10:38.782Z,9.26
2019-02-02T17:13:08.591Z,9.25
2019-02-02T17:15:38.608Z,9.24
2019-02-02T17:18:08.473Z,9.20
2019-02-02T17:20:40.325Z,9.17
2019-02-02T17:23:10.011Z,9.18
2019-02-02T17:25:39.565Z,9.18
2019-02-02T17:28:10.245Z,8.99
2019-02-02T17:30:39.966Z,8.82
2019-02-02T17:33:12.102Z,8.73
2019-02-02T17:35:41.696Z,8.76
2019-02-02T17:38:11.288Z,8.74
2019-02-02T17:40:40.793Z,8.76
2019-02-02T17:43:10.267Z,8.78
2019-02-02T17:45:40.029Z,8.83
2019-02-02T17:48:12.999Z,8.85
2019-02-02T17:50:41.376Z,8.84
2019-02-02T17:53:10.885Z,8.87
2019-02-02T17:55:40.346Z,8.88
2019-02-02T17:58:09.867Z,8.77
2019-02-02T18:00:48.729Z,8.71
2019-02-02T18:03:18.243Z,8.65
2019-02-02T18:05:47.729Z,8.58
2019-02-02T18:08:17.191Z,8.58
2019-02-02T18:10:46.695Z,8.54
2019-02-02T18:13:16.165Z,8.56
2019-02-02T18:15:45.705Z,8.50
2019-02-02T18:18:15.188Z,8.49
2019-02-02T18:20:44.758Z,8.50
2019-02-02T18:23:14.301Z,8.51
2019-02-02T18:25:43.828Z,8.55
2019-02-02T18:28:13.409Z,8.48
2019-02-02T18:30:42.920Z,8.43
2019-02-02T18:33:12.518Z,8.36
2019-02-02T18:35:42.010Z,8.29
2019-02-02T18:38:11.477Z,8.31
2019-02-02T18:40:40.990Z,8.03
2019-02-02T18:43:10.519Z,7.86
2019-02-02T18:45:43.179Z,7.85
2019-02-02T18:48:12.980Z,7.72
2019-02-02T18:50:42.536Z,7.77
2019-02-02T18:53:12.042Z,7.63
2019-02-02T18:55:44.701Z,7.53
2019-02-02T18:58:14.186Z,7.64
2019-02-02T19:00:43.659Z,7.66
2019-02-02T19:03:13.222Z,7.66
2019-02-02T19:05:42.784Z,7.74
2019-02-02T19:08:12.444Z,7.77
2019-02-02T19:10:41.943Z,7.67
2019-02-02T19:13:11.572Z,7.67
2019-02-02T19:15:41.080Z,7.69
2019-02-02T19:18:12.210Z,7.56
2019-02-02T19:20:41.697Z,7.54
2019-02-02T19:23:11.319Z,7.50
2019-02-02T19:25:40.787Z,7.45
2019-02-02T19:28:10.331Z,7.45
2019-02-02T19:30:39.803Z,7.51
2019-02-02T19:33:09.412Z,7.59
2019-02-02T19:35:38.948Z,7.64
2019-02-02T19:38:08.842Z,7.55
2019-02-02T19:40:38.532Z,7.38
2019-02-02T19:43:08.531Z,7.35
2019-02-02T19:45:38.078Z,7.26
2019-02-02T19:48:07.614Z,6.98
2019-02-02T19:50:37.189Z,7.07
2019-02-02T19:53:06.698Z,6.99
2019-02-02T19:55:36.229Z,6.98
2019-02-02T19:58:06.418Z,7.11
2019-02-02T20:00:36.016Z,6.94
2019-02-02T20:03:05.706Z,6.93
2019-02-02T20:05:35.256Z,6.80
2019-02-02T20:08:05.384Z,6.84
2019-02-02T20:10:34.887Z,6.85
2019-02-02T20:13:04.551Z,6.93
2019-02-02T20:15:34.059Z,6.99
2019-02-02T20:18:09.891Z,6.85
2019-02-02T20:20:37.731Z,6.84
2019-02-02T20:23:07.226Z,6.89
2019-02-02T20:25:36.731Z,6.94
2019-02-02T20:28:06.225Z,7.03
2019-02-02T20:30:35.701Z,7.07
2019-02-02T20:33:05.594Z,6.92
2019-02-02T20:35:41.959Z,6.90
2019-02-02T20:38:06.278Z,6.95
2019-02-02T20:40:35.767Z,6.98
2019-02-02T20:43:05.387Z,6.92
2019-02-02T20:45:36.049Z,6.93
2019-02-02T20:48:06.175Z,7.01
2019-02-02T20:50:35.686Z,6.98
2019-02-02T20:53:05.662Z,6.99
2019-02-02T20:55:38.084Z,6.95
2019-02-02T20:58:07.835Z,6.91
2019-02-02T21:00:38.006Z,7.00
2019-02-02T21:03:07.649Z,7.03
2019-02-02T21:05:37.131Z,6.95
2019-02-02T21:08:07.046Z,6.87
2019-02-02T21:10:36.548Z,6.84
2019-02-02T21:13:06.346Z,6.91
2019-02-02T21:15:35.911Z,6.97
2019-02-02T21:18:05.975Z,7.05
2019-02-02T21:20:36.126Z,7.09
2019-02-02T21:23:05.814Z,7.15
2019-02-02T21:25:35.341Z,7.10
2019-02-02T21:28:05.378Z,7.11
2019-02-02T21:30:35.771Z,7.14
2019-02-02T21:33:05.775Z,7.18
2019-02-02T21:35:35.528Z,7.06
2019-02-02T21:38:05.605Z,7.08
2019-02-02T21:40:36.044Z,6.93
2019-02-02T21:43:08.114Z,6.73
2019-02-02T21:45:38.004Z,6.82
2019-02-02T21:48:07.627Z,6.84
2019-02-02T21:50:37.308Z,6.82
2019-02-02T21:53:06.957Z,6.83
2019-02-02T21:55:36.497Z,6.88
2019-02-02T21:58:06.151Z,6.80
2019-02-02T22:00:42.913Z,6.84
2019-02-02T22:03:12.420Z,6.80
2019-02-02T22:05:41.948Z,6.82
2019-02-02T22:08:11.615Z,6.86
2019-02-02T22:10:41.599Z,6.85
2019-02-02T22:13:11.112Z,6.94
2019-02-02T22:15:40.631Z,6.96
2019-02-02T22:18:10.252Z,6.98
2019-02-02T22:20:39.794Z,7.01
2019-02-02T22:23:09.649Z,6.96
2019-02-02T22:25:39.123Z,6.96
2019-02-02T22:28:08.577Z,6.93
2019-02-02T22:30:38.533Z,6.97
2019-02-02T22:33:08.493Z,6.94
2019-02-02T22:35:38.141Z,6.63
2019-02-02T22:38:07.849Z,6.49
2019-02-02T22:40:37.454Z,6.57
2019-02-02T22:43:07.223Z,6.49
2019-02-02T22:45:36.729Z,6.48
2019-02-02T22:48:07.199Z,6.56
2019-02-02T22:50:36.803Z,6.65
2019-02-02T22:53:06.391Z,6.53
2019-02-02T22:55:39.005Z,6.47
2019-02-02T22:58:08.503Z,6.46
2019-02-02T23:01:07.772Z,6.49
2019-02-02T23:04:27.830Z,6.54
2019-02-02T23:07:21.381Z,6.47
2019-02-02T23:10:31.631Z,6.51
2019-02-02T23:13:51.261Z,6.53
2019-02-02T23:16:28.587Z,6.48
2019-02-02T23:18:59.369Z,6.46
2019-02-02T23:21:30.073Z,6.49
2019-02-02T23:23:59.604Z,6.53
2019-02-02T23:26:29.113Z,6.49
2019-02-02T23:28:58.617Z,6.41
2019-02-02T23:31:28.129Z,6.42
2019-02-02T23:33:57.597Z,6.49
2019-02-02T23:36:27.101Z,6.42
2019-02-02T23:38:56.595Z,6.18
2019-02-02T23:41:26.091Z,6.08
2019-02-02T23:43:55.887Z,6.18
2019-02-02T23:46:25.410Z,6.28
2019-02-02T23:48:54.898Z,6.41
2019-02-02T23:51:24.412Z,6.47
2019-02-02T23:53:54.526Z,6.41
2019-02-02T23:56:24.129Z,6.42
2019-02-02T23:58:53.665Z,6.45
